Portada
METAR-TAF:

METAR-TAF

Aeroports :

Vorónej, Rússia

latitud: 51-39N, longitud: 039-15E, altitud: 154 m

Observació

L'informe es va fer fa 22 minuts, a les 02:00 UTC
Vent 4 kt del Oest/Nord-Oest
Temperatura 16°C
Humitat 100%
Pressió 1009 hPa
Visibilitat 10 km o més
sense núvols per sota de 1500 mi sense presència de cumulonimbus.

METAR: UUOO 160200Z 29002MPS CAVOK 16/16 Q1009 R30/010070 NOSIG RMK QFE743

Hora: 05:22 (02:22 UTC)

Pronòstic

L'informe es va fer fa 3 hores i 22 minuts, a les 23:00 UTC
Pronòstic vàlid del 16 a les 00 UTC al 16 a les 09 UTC
Vent 4 kt del Nord/Nord-Oest
Visibilitat: 6000 m
Núvols disperses a una alçada de 3000 ft
Temporalment
l' 16 a les 00 UTC al 16 a les 04 UTC
Visibilitat: 0300 m
boira
Probabilitat 40% :
Temporalment
l' 16 a les 06 UTC al 16 a les 09 UTC
Cel ennuvolat a una alçada de 3000 ft, Cumulonimbus.
tempesta, pluja

TAF: UUOO 152300Z 1600/1609 34002MPS 6000 SCT030 TEMPO 1600/1604 0300 FG PROB40 TEMPO 1606/1609 -TSRA BKN030CB

Observacions i pronòstics meteorològics de més de 4000 aeroports (METAR i TAF).

Les estacions disponibles són els punts grocs i vermells al mapa.

Posi el ratolí al punt desitjat per veure el nom de l'estació.

Feu clic per veure les observacions i els pronòstics meteorològics.

Per canviar el mapa: feu clic els botons verds amb una creu de color negre per apropar; al botó verd amb un guió per allunyar la imatge; o en les fletxes verdes per a mapes adjacents.


METAR-TAF: